UAL2389 KLGA-KORD
Flight info
| Callsign | UAL2389 |
|---|---|
| Flight time | 1h 52m |
| Altitude | 34000 |
| Route | COATE Q436 KAYYS WYNDE3 |
| Aircraft | B38M/M-SDE1FGHILORVWXY/HB1 |
Departure
| Time | 2026-05-06 10:35 |
|---|---|
| Airport | LaGuardia Airport (KLGA) |
Arrival
| Time | 2026-05-06 12:27 |
|---|---|
| Airport | Chicago O'Hare International Airport (KORD) |
| Time | Latitude | Longitude | Altitude | Speed | Heading |
|---|---|---|---|---|---|
| 2026-05-06 10:13 | 40.77340 | -73.88340 | 21 ft | 0 kts | 331° |
| 2026-05-06 10:14 | 40.77341 | -73.88340 | 24 ft | 0 kts | 330° |
| 2026-05-06 10:27 | 40.77334 | -73.88335 | 25 ft | 4 kts | 330° |
| 2026-05-06 10:28 | 40.77311 | -73.88317 | 23 ft | 4 kts | 330° |
| 2026-05-06 10:28 | 40.77287 | -73.88300 | 26 ft | 4 kts | 335° |
| 2026-05-06 10:28 | 40.77263 | -73.88290 | 24 ft | 4 kts | 0° |
| 2026-05-06 10:28 | 40.77249 | -73.88293 | 24 ft | 1 kts | 31° |
| 2026-05-06 10:30 | 40.77256 | -73.88288 | 26 ft | 2 kts | 31° |
| 2026-05-06 10:30 | 40.77278 | -73.88270 | 27 ft | 6 kts | 31° |
| 2026-05-06 10:31 | 40.77323 | -73.88232 | 23 ft | 10 kts | 34° |
| 2026-05-06 10:31 | 40.77392 | -73.88171 | 22 ft | 14 kts | 34° |
| 2026-05-06 10:31 | 40.77487 | -73.88091 | 24 ft | 18 kts | 31° |
| 2026-05-06 10:31 | 40.77598 | -73.88000 | 23 ft | 19 kts | 32° |
| 2026-05-06 10:32 | 40.77715 | -73.87903 | 23 ft | 21 kts | 32° |
| 2026-05-06 10:32 | 40.77843 | -73.87796 | 26 ft | 23 kts | 32° |
| 2026-05-06 10:32 | 40.77959 | -73.87713 | 20 ft | 7 kts | 353° |
| 2026-05-06 10:32 | 40.77990 | -73.87744 | 20 ft | 5 kts | 309° |
| 2026-05-06 10:33 | 40.78012 | -73.87790 | 21 ft | 7 kts | 301° |
| 2026-05-06 10:33 | 40.78060 | -73.87833 | 20 ft | 9 kts | 345° |
| 2026-05-06 10:33 | 40.78124 | -73.87854 | 24 ft | 10 kts | 347° |
| 2026-05-06 10:33 | 40.78189 | -73.87844 | 17 ft | 10 kts | 60° |
| 2026-05-06 10:34 | 40.78178 | -73.87745 | 15 ft | 14 kts | 123° |
| 2026-05-06 10:34 | 40.78046 | -73.87471 | 16 ft | 72 kts | 122° |
| 2026-05-06 10:34 | 40.77654 | -73.86641 | 16 ft | 142 kts | 122° |
| 2026-05-06 10:34 | 40.77026 | -73.85347 | 278 ft | 178 kts | 126° |
| 2026-05-06 10:35 | 40.76183 | -73.84129 | 1047 ft | 179 kts | 154° |
| 2026-05-06 10:35 | 40.75061 | -73.83576 | 1892 ft | 168 kts | 181° |
| 2026-05-06 10:35 | 40.73871 | -73.83302 | 2589 ft | 186 kts | 180° |
| 2026-05-06 10:35 | 40.72494 | -73.82966 | 3122 ft | 207 kts | 186° |
| 2026-05-06 10:36 | 40.71196 | -73.83421 | 4222 ft | 192 kts | 215° |
| 2026-05-06 10:36 | 40.70184 | -73.84609 | 5095 ft | 200 kts | 226° |
| 2026-05-06 10:36 | 40.69215 | -73.85958 | 6066 ft | 204 kts | 226° |
| 2026-05-06 10:36 | 40.68245 | -73.87361 | 6932 ft | 211 kts | 230° |
| 2026-05-06 10:37 | 40.67598 | -73.89186 | 7503 ft | 236 kts | 256° |
| 2026-05-06 10:37 | 40.67773 | -73.91450 | 8090 ft | 268 kts | 285° |
| 2026-05-06 10:37 | 40.68788 | -73.93578 | 9077 ft | 275 kts | 294° |
| 2026-05-06 10:37 | 40.69784 | -73.95745 | 9942 ft | 280 kts | 292° |
| 2026-05-06 10:38 | 40.70890 | -73.97926 | 10582 ft | 299 kts | 301° |
| 2026-05-06 10:38 | 40.72244 | -74.00084 | 10986 ft | 319 kts | 301° |
| 2026-05-06 10:38 | 40.73692 | -74.02428 | 11363 ft | 339 kts | 302° |
| 2026-05-06 10:38 | 40.75201 | -74.04899 | 11791 ft | 354 kts | 302° |
| 2026-05-06 10:39 | 40.76760 | -74.07475 | 12428 ft | 360 kts | 302° |
| 2026-05-06 10:39 | 40.78318 | -74.10064 | 13217 ft | 363 kts | 302° |
| 2026-05-06 10:39 | 40.79892 | -74.12687 | 13931 ft | 366 kts | 302° |
| 2026-05-06 10:39 | 40.81477 | -74.15331 | 14604 ft | 368 kts | 302° |
| 2026-05-06 10:40 | 40.83070 | -74.17993 | 15284 ft | 370 kts | 302° |
| 2026-05-06 10:40 | 40.84672 | -74.20673 | 15940 ft | 372 kts | 302° |
| 2026-05-06 10:40 | 40.86273 | -74.23354 | 16577 ft | 374 kts | 303° |
| 2026-05-06 10:40 | 40.87888 | -74.26062 | 17175 ft | 377 kts | 303° |
| 2026-05-06 10:41 | 40.89517 | -74.28795 | 17776 ft | 379 kts | 303° |
| 2026-05-06 10:41 | 40.91157 | -74.31548 | 18353 ft | 382 kts | 303° |
| 2026-05-06 10:41 | 40.92801 | -74.34311 | 18862 ft | 384 kts | 303° |
| 2026-05-06 10:41 | 40.94433 | -74.37058 | 19404 ft | 385 kts | 303° |
| 2026-05-06 10:42 | 40.96102 | -74.39867 | 19893 ft | 388 kts | 303° |
| 2026-05-06 10:42 | 40.97775 | -74.42687 | 20416 ft | 390 kts | 303° |
| 2026-05-06 10:42 | 40.99452 | -74.45514 | 20924 ft | 391 kts | 303° |
| 2026-05-06 10:42 | 41.01128 | -74.48345 | 21425 ft | 394 kts | 303° |
| 2026-05-06 10:43 | 41.02822 | -74.51206 | 21897 ft | 396 kts | 303° |
| 2026-05-06 10:43 | 41.04520 | -74.54079 | 22400 ft | 397 kts | 303° |
| 2026-05-06 10:43 | 41.06229 | -74.56973 | 22855 ft | 400 kts | 303° |
| 2026-05-06 10:44 | 41.09670 | -74.62805 | 23801 ft | 404 kts | 303° |
| 2026-05-06 10:44 | 41.11382 | -74.65712 | 24231 ft | 405 kts | 303° |
| 2026-05-06 10:44 | 41.13117 | -74.68664 | 24660 ft | 406 kts | 302° |
| 2026-05-06 10:44 | 41.14614 | -74.71823 | 25072 ft | 404 kts | 296° |
| 2026-05-06 10:45 | 41.16032 | -74.75051 | 25481 ft | 407 kts | 296° |
| 2026-05-06 10:45 | 41.17458 | -74.78315 | 25912 ft | 408 kts | 296° |
| 2026-05-06 10:45 | 41.18884 | -74.81588 | 26350 ft | 410 kts | 295° |
| 2026-05-06 10:45 | 41.20313 | -74.84873 | 26760 ft | 411 kts | 295° |
| 2026-05-06 10:46 | 41.21745 | -74.88167 | 27159 ft | 413 kts | 296° |
| 2026-05-06 10:46 | 41.23182 | -74.91479 | 27528 ft | 415 kts | 295° |
| 2026-05-06 10:46 | 41.24622 | -74.94803 | 27912 ft | 416 kts | 295° |
| 2026-05-06 10:46 | 41.26068 | -74.98142 | 28282 ft | 418 kts | 295° |
| 2026-05-06 10:47 | 41.27519 | -75.01497 | 28659 ft | 419 kts | 295° |
| 2026-05-06 10:47 | 41.28966 | -75.04847 | 29056 ft | 420 kts | 295° |
| 2026-05-06 10:47 | 41.30417 | -75.08209 | 29616 ft | 417 kts | 295° |
| 2026-05-06 10:47 | 41.31851 | -75.11537 | 30164 ft | 413 kts | 295° |
| 2026-05-06 10:48 | 41.33274 | -75.14841 | 30665 ft | 409 kts | 295° |
| 2026-05-06 10:48 | 41.34681 | -75.18114 | 31150 ft | 406 kts | 295° |
| 2026-05-06 10:48 | 41.36078 | -75.21365 | 31621 ft | 402 kts | 295° |
| 2026-05-06 10:48 | 41.37458 | -75.24580 | 32100 ft | 399 kts | 295° |
| 2026-05-06 10:49 | 41.38831 | -75.27782 | 32576 ft | 396 kts | 295° |
| 2026-05-06 10:49 | 41.40172 | -75.30914 | 33035 ft | 393 kts | 295° |
| 2026-05-06 10:49 | 41.41528 | -75.34085 | 33513 ft | 390 kts | 295° |
| 2026-05-06 10:49 | 41.42871 | -75.37227 | 33805 ft | 389 kts | 295° |
| 2026-05-06 10:50 | 41.44207 | -75.40357 | 33828 ft | 387 kts | 295° |
| 2026-05-06 10:50 | 41.46856 | -75.46569 | 33827 ft | 386 kts | 294° |
| 2026-05-06 10:51 | 41.48943 | -75.53043 | 33840 ft | 383 kts | 287° |
| 2026-05-06 10:51 | 41.50850 | -75.59637 | 33813 ft | 380 kts | 287° |
| 2026-05-06 10:52 | 41.52743 | -75.66226 | 33806 ft | 381 kts | 287° |
| 2026-05-06 10:52 | 41.54632 | -75.72823 | 33813 ft | 381 kts | 287° |
| 2026-05-06 10:53 | 41.56518 | -75.79428 | 33816 ft | 380 kts | 287° |
| 2026-05-06 10:53 | 41.58402 | -75.86043 | 33807 ft | 381 kts | 287° |
| 2026-05-06 10:54 | 41.60278 | -75.92650 | 33820 ft | 381 kts | 287° |
| 2026-05-06 10:54 | 41.61840 | -75.98164 | 33817 ft | 381 kts | 287° |
| 2026-05-06 10:55 | 41.64018 | -76.05870 | 33821 ft | 381 kts | 287° |
| 2026-05-06 10:55 | 41.65585 | -76.11430 | 33801 ft | 381 kts | 287° |
| 2026-05-06 10:56 | 41.67446 | -76.18050 | 33798 ft | 386 kts | 286° |
| 2026-05-06 10:56 | 41.69345 | -76.24820 | 33803 ft | 390 kts | 286° |
| 2026-05-06 10:57 | 41.71248 | -76.31624 | 33794 ft | 390 kts | 286° |
| 2026-05-06 10:57 | 41.73144 | -76.38423 | 33802 ft | 390 kts | 286° |
| 2026-05-06 10:58 | 41.75035 | -76.45221 | 33797 ft | 390 kts | 286° |
| 2026-05-06 10:58 | 41.76924 | -76.52027 | 33820 ft | 390 kts | 285° |
| 2026-05-06 10:59 | 41.78800 | -76.58806 | 33806 ft | 389 kts | 285° |
| 2026-05-06 10:59 | 41.80679 | -76.65609 | 33805 ft | 389 kts | 285° |
| 2026-05-06 11:00 | 41.82538 | -76.72357 | 33799 ft | 389 kts | 285° |
| 2026-05-06 11:00 | 41.84399 | -76.79132 | 33810 ft | 389 kts | 285° |
| 2026-05-06 11:01 | 41.86264 | -76.85945 | 33823 ft | 391 kts | 285° |
| 2026-05-06 11:01 | 41.88123 | -76.92749 | 33810 ft | 388 kts | 285° |
| 2026-05-06 11:02 | 41.89970 | -76.99555 | 33808 ft | 388 kts | 285° |
| 2026-05-06 11:02 | 41.91801 | -77.06319 | 33807 ft | 388 kts | 285° |
| 2026-05-06 11:03 | 41.93643 | -77.13138 | 33798 ft | 388 kts | 284° |
| 2026-05-06 11:03 | 41.95478 | -77.19950 | 33799 ft | 389 kts | 284° |
| 2026-05-06 11:04 | 41.97313 | -77.26784 | 33792 ft | 387 kts | 284° |
| 2026-05-06 11:04 | 41.99134 | -77.33585 | 33798 ft | 387 kts | 284° |
| 2026-05-06 11:05 | 42.00956 | -77.40390 | 33800 ft | 387 kts | 284° |
| 2026-05-06 11:05 | 42.02813 | -77.47185 | 33796 ft | 387 kts | 284° |
| 2026-05-06 11:06 | 42.04659 | -77.53971 | 33781 ft | 387 kts | 284° |
| 2026-05-06 11:06 | 42.06495 | -77.60742 | 33797 ft | 388 kts | 283° |
| 2026-05-06 11:07 | 42.08347 | -77.67592 | 33786 ft | 390 kts | 283° |
| 2026-05-06 11:07 | 42.10203 | -77.74472 | 33788 ft | 390 kts | 283° |
| 2026-05-06 11:08 | 42.12053 | -77.81353 | 33796 ft | 390 kts | 283° |
| 2026-05-06 11:08 | 42.13894 | -77.88218 | 33812 ft | 391 kts | 283° |
| 2026-05-06 11:09 | 42.15735 | -77.95103 | 33801 ft | 390 kts | 283° |
| 2026-05-06 11:09 | 42.17576 | -78.02006 | 33791 ft | 391 kts | 282° |
| 2026-05-06 11:10 | 42.19413 | -78.08916 | 33802 ft | 391 kts | 282° |
| 2026-05-06 11:10 | 42.21243 | -78.15817 | 33787 ft | 391 kts | 282° |
| 2026-05-06 11:11 | 42.23072 | -78.22731 | 33818 ft | 392 kts | 282° |
| 2026-05-06 11:11 | 42.24852 | -78.29675 | 33797 ft | 391 kts | 281° |
| 2026-05-06 11:12 | 42.26567 | -78.36588 | 33806 ft | 391 kts | 281° |
| 2026-05-06 11:12 | 42.28299 | -78.43557 | 33796 ft | 391 kts | 281° |
| 2026-05-06 11:13 | 42.30022 | -78.50510 | 33816 ft | 391 kts | 281° |
| 2026-05-06 11:13 | 42.31746 | -78.57490 | 33820 ft | 391 kts | 281° |
| 2026-05-06 11:14 | 42.33464 | -78.64465 | 33821 ft | 391 kts | 281° |
| 2026-05-06 11:14 | 42.35181 | -78.71455 | 33841 ft | 392 kts | 281° |
| 2026-05-06 11:15 | 42.36883 | -78.78407 | 33844 ft | 393 kts | 281° |
| 2026-05-06 11:15 | 42.38610 | -78.85480 | 33845 ft | 394 kts | 281° |
| 2026-05-06 11:16 | 42.40047 | -78.92515 | 33838 ft | 383 kts | 269° |
| 2026-05-06 11:16 | 42.40534 | -78.99704 | 33847 ft | 384 kts | 270° |
| 2026-05-06 11:17 | 42.41024 | -79.06894 | 33879 ft | 383 kts | 270° |
| 2026-05-06 11:17 | 42.41495 | -79.14025 | 33853 ft | 379 kts | 270° |
| 2026-05-06 11:18 | 42.41957 | -79.21127 | 33850 ft | 380 kts | 270° |
| 2026-05-06 11:18 | 42.42415 | -79.28237 | 33861 ft | 380 kts | 270° |
| 2026-05-06 11:19 | 42.42867 | -79.35317 | 33848 ft | 380 kts | 269° |
| 2026-05-06 11:19 | 42.43318 | -79.42445 | 33852 ft | 380 kts | 269° |
| 2026-05-06 11:20 | 42.43760 | -79.49524 | 33867 ft | 378 kts | 269° |
| 2026-05-06 11:20 | 42.44198 | -79.56595 | 33855 ft | 378 kts | 269° |
| 2026-05-06 11:21 | 42.44633 | -79.63685 | 33853 ft | 378 kts | 269° |
| 2026-05-06 11:21 | 42.45063 | -79.70770 | 33847 ft | 378 kts | 269° |
| 2026-05-06 11:22 | 42.45487 | -79.77830 | 33856 ft | 378 kts | 269° |
| 2026-05-06 11:22 | 42.45906 | -79.84859 | 33864 ft | 379 kts | 269° |
| 2026-05-06 11:23 | 42.46324 | -79.91971 | 33854 ft | 379 kts | 269° |
| 2026-05-06 11:23 | 42.46737 | -79.99092 | 33858 ft | 379 kts | 269° |
| 2026-05-06 11:24 | 42.47147 | -80.06222 | 33863 ft | 379 kts | 269° |
| 2026-05-06 11:24 | 42.47552 | -80.13325 | 33857 ft | 379 kts | 269° |
| 2026-05-06 11:25 | 42.47953 | -80.20452 | 33875 ft | 379 kts | 269° |
| 2026-05-06 11:25 | 42.48349 | -80.27579 | 33863 ft | 379 kts | 269° |
| 2026-05-06 11:26 | 42.48741 | -80.34701 | 33865 ft | 379 kts | 269° |
| 2026-05-06 11:26 | 42.49129 | -80.41827 | 33865 ft | 379 kts | 269° |
| 2026-05-06 11:27 | 42.49511 | -80.48932 | 33873 ft | 379 kts | 269° |
| 2026-05-06 11:27 | 42.49888 | -80.56020 | 33879 ft | 379 kts | 269° |
| 2026-05-06 11:28 | 42.50263 | -80.63147 | 33870 ft | 379 kts | 269° |
| 2026-05-06 11:28 | 42.50569 | -80.70274 | 33867 ft | 378 kts | 267° |
| 2026-05-06 11:29 | 42.50789 | -80.77410 | 33869 ft | 378 kts | 268° |
| 2026-05-06 11:29 | 42.51014 | -80.84527 | 33870 ft | 379 kts | 268° |
| 2026-05-06 11:30 | 42.51238 | -80.91669 | 33901 ft | 378 kts | 268° |
| 2026-05-06 11:30 | 42.51456 | -80.98772 | 33865 ft | 376 kts | 267° |
| 2026-05-06 11:31 | 42.51668 | -81.05817 | 33862 ft | 377 kts | 267° |
| 2026-05-06 11:31 | 42.51876 | -81.12901 | 33865 ft | 377 kts | 267° |
| 2026-05-06 11:32 | 42.52080 | -81.19977 | 33867 ft | 377 kts | 267° |
| 2026-05-06 11:32 | 42.52329 | -81.27073 | 33862 ft | 379 kts | 272° |
| 2026-05-06 11:33 | 42.53123 | -81.34171 | 33871 ft | 382 kts | 272° |
| 2026-05-06 11:33 | 42.53924 | -81.41218 | 33878 ft | 382 kts | 272° |
| 2026-05-06 11:34 | 42.54710 | -81.48126 | 33863 ft | 381 kts | 272° |
| 2026-05-06 11:34 | 42.55506 | -81.55170 | 33878 ft | 382 kts | 272° |
| 2026-05-06 11:35 | 42.56307 | -81.62288 | 33865 ft | 381 kts | 272° |
| 2026-05-06 11:35 | 42.57104 | -81.69409 | 33894 ft | 382 kts | 272° |
| 2026-05-06 11:36 | 42.57896 | -81.76530 | 33882 ft | 382 kts | 272° |
| 2026-05-06 11:36 | 42.58682 | -81.83644 | 33884 ft | 382 kts | 272° |
| 2026-05-06 11:37 | 42.59465 | -81.90759 | 33882 ft | 382 kts | 272° |
| 2026-05-06 11:37 | 42.60243 | -81.97885 | 33886 ft | 381 kts | 272° |
| 2026-05-06 11:38 | 42.61016 | -82.05001 | 33891 ft | 381 kts | 272° |
| 2026-05-06 11:38 | 42.61785 | -82.12122 | 33895 ft | 381 kts | 272° |
| 2026-05-06 11:39 | 42.62544 | -82.19188 | 33892 ft | 381 kts | 272° |
| 2026-05-06 11:39 | 42.63304 | -82.26311 | 33897 ft | 381 kts | 272° |
| 2026-05-06 11:40 | 42.64060 | -82.33443 | 33901 ft | 381 kts | 272° |
| 2026-05-06 11:40 | 42.64811 | -82.40561 | 33930 ft | 381 kts | 273° |
| 2026-05-06 11:41 | 42.65560 | -82.47694 | 33899 ft | 381 kts | 273° |
| 2026-05-06 11:41 | 42.66294 | -82.54764 | 33877 ft | 381 kts | 273° |
| 2026-05-06 11:42 | 42.67029 | -82.61870 | 33870 ft | 381 kts | 273° |
| 2026-05-06 11:42 | 42.67638 | -82.67796 | 33864 ft | 381 kts | 273° |
| 2026-05-06 11:43 | 42.68366 | -82.74928 | 33861 ft | 381 kts | 273° |
| 2026-05-06 11:43 | 42.69084 | -82.82037 | 33868 ft | 380 kts | 273° |
| 2026-05-06 11:44 | 42.70150 | -82.92688 | 33863 ft | 379 kts | 273° |
| 2026-05-06 11:44 | 42.70857 | -82.99805 | 33867 ft | 379 kts | 273° |
| 2026-05-06 11:45 | 42.71688 | -83.06902 | 33907 ft | 380 kts | 274° |
| 2026-05-06 11:45 | 42.72519 | -83.13954 | 33907 ft | 380 kts | 274° |
| 2026-05-06 11:46 | 42.73346 | -83.21040 | 33903 ft | 380 kts | 275° |
| 2026-05-06 11:46 | 42.74170 | -83.28157 | 33898 ft | 381 kts | 275° |
| 2026-05-06 11:47 | 42.74991 | -83.35282 | 33898 ft | 380 kts | 275° |
| 2026-05-06 11:47 | 42.75802 | -83.42361 | 33898 ft | 380 kts | 275° |
| 2026-05-06 11:48 | 42.76611 | -83.49462 | 33915 ft | 380 kts | 274° |
| 2026-05-06 11:48 | 42.77419 | -83.56588 | 33932 ft | 381 kts | 275° |
| 2026-05-06 11:49 | 42.78218 | -83.63689 | 33919 ft | 382 kts | 275° |
| 2026-05-06 11:49 | 42.79018 | -83.70833 | 33917 ft | 382 kts | 274° |
| 2026-05-06 11:50 | 42.79814 | -83.77977 | 33922 ft | 382 kts | 274° |
| 2026-05-06 11:50 | 42.80604 | -83.85112 | 33922 ft | 382 kts | 274° |
| 2026-05-06 11:51 | 42.81392 | -83.92260 | 33948 ft | 382 kts | 275° |
| 2026-05-06 11:51 | 42.82175 | -83.99392 | 33926 ft | 381 kts | 274° |
| 2026-05-06 11:52 | 42.82955 | -84.06539 | 33925 ft | 381 kts | 274° |
| 2026-05-06 11:52 | 42.83729 | -84.13668 | 33924 ft | 381 kts | 274° |
| 2026-05-06 11:53 | 42.84498 | -84.20803 | 33926 ft | 381 kts | 274° |
| 2026-05-06 11:53 | 42.85265 | -84.27952 | 33924 ft | 381 kts | 274° |
| 2026-05-06 11:54 | 42.86022 | -84.35054 | 33924 ft | 381 kts | 274° |
| 2026-05-06 11:54 | 42.86778 | -84.42193 | 33934 ft | 381 kts | 274° |
| 2026-05-06 11:55 | 42.87532 | -84.49347 | 33934 ft | 381 kts | 274° |
| 2026-05-06 11:55 | 42.88272 | -84.56486 | 33933 ft | 380 kts | 272° |
| 2026-05-06 11:56 | 42.88169 | -84.60000 | 33940 ft | 374 kts | 260° |
| 2026-05-06 11:56 | 42.87813 | -84.63531 | 33920 ft | 377 kts | 262° |
| 2026-05-06 11:56 | 42.87138 | -84.70619 | 33941 ft | 377 kts | 261° |
| 2026-05-06 11:57 | 42.86416 | -84.77692 | 33931 ft | 377 kts | 261° |
| 2026-05-06 11:57 | 42.85679 | -84.84756 | 33935 ft | 377 kts | 261° |
| 2026-05-06 11:58 | 42.84936 | -84.91826 | 33932 ft | 377 kts | 261° |
| 2026-05-06 11:58 | 42.84187 | -84.98900 | 33934 ft | 377 kts | 261° |
| 2026-05-06 11:59 | 42.83433 | -85.05974 | 33950 ft | 377 kts | 261° |
| 2026-05-06 11:59 | 42.82673 | -85.13061 | 33940 ft | 378 kts | 261° |
| 2026-05-06 12:00 | 42.81913 | -85.20104 | 33937 ft | 378 kts | 261° |
| 2026-05-06 12:00 | 42.81145 | -85.27190 | 33946 ft | 378 kts | 261° |
| 2026-05-06 12:01 | 42.80372 | -85.34273 | 33953 ft | 378 kts | 261° |
| 2026-05-06 12:01 | 42.79594 | -85.41360 | 33957 ft | 378 kts | 261° |
| 2026-05-06 12:02 | 42.78811 | -85.48457 | 33965 ft | 380 kts | 260° |
| 2026-05-06 12:02 | 42.77587 | -85.55422 | 33964 ft | 380 kts | 257° |
| 2026-05-06 12:03 | 42.76355 | -85.62415 | 33961 ft | 380 kts | 257° |
| 2026-05-06 12:03 | 42.75140 | -85.69396 | 33958 ft | 380 kts | 257° |
| 2026-05-06 12:04 | 42.73887 | -85.76375 | 33956 ft | 380 kts | 256° |
| 2026-05-06 12:04 | 42.72621 | -85.83354 | 33969 ft | 380 kts | 256° |
| 2026-05-06 12:05 | 42.71364 | -85.90265 | 33977 ft | 380 kts | 256° |
| 2026-05-06 12:05 | 42.70091 | -85.97242 | 33978 ft | 380 kts | 256° |
| 2026-05-06 12:06 | 42.68522 | -86.04070 | 33958 ft | 382 kts | 242° |
| 2026-05-06 12:06 | 42.66855 | -86.06869 | 33602 ft | 382 kts | 229° |
| 2026-05-06 12:06 | 42.64912 | -86.09333 | 32905 ft | 382 kts | 229° |
| 2026-05-06 12:07 | 42.62943 | -86.11779 | 32123 ft | 383 kts | 228° |
| 2026-05-06 12:07 | 42.60955 | -86.14193 | 31408 ft | 383 kts | 227° |
| 2026-05-06 12:07 | 42.58968 | -86.16577 | 30736 ft | 382 kts | 227° |
| 2026-05-06 12:07 | 42.56950 | -86.18981 | 30011 ft | 390 kts | 227° |
| 2026-05-06 12:08 | 42.54891 | -86.21418 | 29076 ft | 394 kts | 227° |
| 2026-05-06 12:08 | 42.52819 | -86.23868 | 28326 ft | 397 kts | 227° |
| 2026-05-06 12:08 | 42.50752 | -86.26307 | 27547 ft | 400 kts | 226° |
| 2026-05-06 12:08 | 42.48665 | -86.28768 | 26739 ft | 402 kts | 226° |
| 2026-05-06 12:09 | 42.46549 | -86.31260 | 26099 ft | 405 kts | 226° |
| 2026-05-06 12:09 | 42.44427 | -86.33759 | 25451 ft | 407 kts | 226° |
| 2026-05-06 12:09 | 42.42288 | -86.36274 | 24815 ft | 406 kts | 226° |
| 2026-05-06 12:09 | 42.40173 | -86.38758 | 24186 ft | 402 kts | 226° |
| 2026-05-06 12:10 | 42.38071 | -86.41225 | 23550 ft | 398 kts | 226° |
| 2026-05-06 12:10 | 42.35983 | -86.43674 | 22834 ft | 395 kts | 226° |
| 2026-05-06 12:10 | 42.33914 | -86.46097 | 22162 ft | 392 kts | 226° |
| 2026-05-06 12:10 | 42.31862 | -86.48500 | 21558 ft | 389 kts | 226° |
| 2026-05-06 12:11 | 42.29820 | -86.50888 | 20972 ft | 387 kts | 226° |
| 2026-05-06 12:11 | 42.27816 | -86.53229 | 20379 ft | 385 kts | 226° |
| 2026-05-06 12:11 | 42.26110 | -86.55221 | 19873 ft | 383 kts | 226° |
| 2026-05-06 12:11 | 42.24100 | -86.57566 | 19290 ft | 381 kts | 226° |
| 2026-05-06 12:12 | 42.22107 | -86.59889 | 18699 ft | 378 kts | 226° |
| 2026-05-06 12:12 | 42.20131 | -86.62190 | 18089 ft | 375 kts | 226° |
| 2026-05-06 12:12 | 42.18156 | -86.64488 | 17458 ft | 373 kts | 226° |
| 2026-05-06 12:12 | 42.16190 | -86.66773 | 16884 ft | 372 kts | 225° |
| 2026-05-06 12:13 | 42.14235 | -86.69043 | 16282 ft | 370 kts | 225° |
| 2026-05-06 12:13 | 42.12301 | -86.71288 | 15726 ft | 370 kts | 225° |
| 2026-05-06 12:13 | 42.10355 | -86.73544 | 15163 ft | 368 kts | 225° |
| 2026-05-06 12:13 | 42.08422 | -86.75785 | 14592 ft | 367 kts | 225° |
| 2026-05-06 12:14 | 42.06490 | -86.78021 | 14025 ft | 365 kts | 225° |
| 2026-05-06 12:14 | 42.04568 | -86.80244 | 13423 ft | 363 kts | 224° |
| 2026-05-06 12:14 | 42.02663 | -86.82446 | 12826 ft | 362 kts | 224° |
| 2026-05-06 12:14 | 42.00752 | -86.84655 | 12273 ft | 361 kts | 224° |
| 2026-05-06 12:15 | 41.98877 | -86.86819 | 11954 ft | 355 kts | 224° |
| 2026-05-06 12:15 | 41.97039 | -86.88941 | 11788 ft | 341 kts | 225° |
| 2026-05-06 12:15 | 41.95583 | -86.91333 | 11557 ft | 324 kts | 245° |
| 2026-05-06 12:15 | 41.94958 | -86.94151 | 11391 ft | 310 kts | 265° |
| 2026-05-06 12:16 | 41.94974 | -86.96986 | 11259 ft | 298 kts | 272° |
| 2026-05-06 12:16 | 41.95077 | -86.99719 | 11108 ft | 288 kts | 273° |
| 2026-05-06 12:16 | 41.95204 | -87.02370 | 10961 ft | 279 kts | 274° |
| 2026-05-06 12:16 | 41.95339 | -87.04929 | 10814 ft | 270 kts | 274° |
| 2026-05-06 12:17 | 41.95478 | -87.07403 | 10673 ft | 261 kts | 274° |
| 2026-05-06 12:17 | 41.95617 | -87.09787 | 10559 ft | 252 kts | 274° |
| 2026-05-06 12:17 | 41.95754 | -87.12090 | 10443 ft | 243 kts | 275° |
| 2026-05-06 12:17 | 41.95886 | -87.14299 | 10316 ft | 234 kts | 275° |
| 2026-05-06 12:18 | 41.96016 | -87.16460 | 10210 ft | 233 kts | 275° |
| 2026-05-06 12:18 | 41.96150 | -87.18687 | 10109 ft | 243 kts | 275° |
| 2026-05-06 12:18 | 41.96285 | -87.20929 | 9914 ft | 248 kts | 275° |
| 2026-05-06 12:18 | 41.96423 | -87.23238 | 9619 ft | 249 kts | 275° |
| 2026-05-06 12:19 | 41.96561 | -87.25556 | 9331 ft | 249 kts | 275° |
| 2026-05-06 12:19 | 41.96700 | -87.27879 | 9078 ft | 248 kts | 275° |
| 2026-05-06 12:19 | 41.96822 | -87.30175 | 8972 ft | 247 kts | 272° |
| 2026-05-06 12:19 | 41.96837 | -87.32496 | 8643 ft | 250 kts | 271° |
| 2026-05-06 12:20 | 41.96852 | -87.34835 | 8278 ft | 250 kts | 271° |
| 2026-05-06 12:20 | 41.96894 | -87.37159 | 8010 ft | 247 kts | 272° |
| 2026-05-06 12:20 | 41.96926 | -87.39469 | 7674 ft | 246 kts | 271° |
| 2026-05-06 12:20 | 41.96939 | -87.41773 | 7340 ft | 246 kts | 271° |
| 2026-05-06 12:21 | 41.96942 | -87.44041 | 7049 ft | 245 kts | 271° |
| 2026-05-06 12:21 | 41.96944 | -87.46325 | 6720 ft | 245 kts | 271° |
| 2026-05-06 12:21 | 41.96944 | -87.48604 | 6387 ft | 245 kts | 271° |
| 2026-05-06 12:21 | 41.96943 | -87.50893 | 6066 ft | 244 kts | 271° |
| 2026-05-06 12:22 | 41.96942 | -87.53169 | 5724 ft | 244 kts | 271° |
| 2026-05-06 12:22 | 41.96940 | -87.55456 | 5388 ft | 244 kts | 271° |
| 2026-05-06 12:22 | 41.96938 | -87.57739 | 5079 ft | 243 kts | 271° |
| 2026-05-06 12:22 | 41.96936 | -87.60003 | 4798 ft | 241 kts | 271° |
| 2026-05-06 12:23 | 41.96935 | -87.62249 | 4503 ft | 240 kts | 271° |
| 2026-05-06 12:23 | 41.96932 | -87.64480 | 4251 ft | 235 kts | 271° |
| 2026-05-06 12:23 | 41.96930 | -87.66629 | 3946 ft | 227 kts | 272° |
| 2026-05-06 12:23 | 41.96929 | -87.68699 | 3632 ft | 221 kts | 272° |
| 2026-05-06 12:24 | 41.96926 | -87.70715 | 3326 ft | 217 kts | 272° |
| 2026-05-06 12:24 | 41.96925 | -87.72723 | 3021 ft | 212 kts | 272° |
| 2026-05-06 12:24 | 41.96923 | -87.74611 | 2741 ft | 190 kts | 272° |
| 2026-05-06 12:24 | 41.96921 | -87.76282 | 2505 ft | 167 kts | 272° |
| 2026-05-06 12:25 | 41.96918 | -87.77765 | 2282 ft | 150 kts | 272° |
| 2026-05-06 12:25 | 41.96918 | -87.79128 | 2062 ft | 145 kts | 272° |
| 2026-05-06 12:25 | 41.96916 | -87.80479 | 1881 ft | 145 kts | 273° |
| 2026-05-06 12:25 | 41.96914 | -87.81839 | 1671 ft | 145 kts | 273° |
| 2026-05-06 12:26 | 41.96912 | -87.83195 | 1449 ft | 144 kts | 272° |
| 2026-05-06 12:26 | 41.96906 | -87.84528 | 1245 ft | 143 kts | 271° |
| 2026-05-06 12:26 | 41.96915 | -87.85827 | 1079 ft | 139 kts | 271° |
| 2026-05-06 12:26 | 41.96921 | -87.87124 | 897 ft | 138 kts | 270° |
| 2026-05-06 12:27 | 41.96912 | -87.88410 | 724 ft | 139 kts | 269° |
| 2026-05-06 12:27 | 41.96906 | -87.89632 | 673 ft | 112 kts | 270° |
| 2026-05-06 12:27 | 41.96906 | -87.90462 | 667 ft | 67 kts | 270° |
| 2026-05-06 12:27 | 41.96905 | -87.90935 | 670 ft | 44 kts | 270° |
| 2026-05-06 12:28 | 41.96849 | -87.91134 | 674 ft | 11 kts | 178° |
| 2026-05-06 12:28 | 41.96795 | -87.91081 | 672 ft | 13 kts | 139° |
| 2026-05-06 12:28 | 41.96741 | -87.90940 | 672 ft | 23 kts | 91° |
| 2026-05-06 12:28 | 41.96739 | -87.90693 | 669 ft | 29 kts | 90° |
| 2026-05-06 12:29 | 41.96751 | -87.90500 | 667 ft | 1 kts | 28° |
| 2026-05-06 12:29 | 41.96780 | -87.90498 | 667 ft | 10 kts | 356° |
| 2026-05-06 12:29 | 41.96880 | -87.90593 | 667 ft | 24 kts | 319° |
| 2026-05-06 12:29 | 41.96994 | -87.90768 | 667 ft | 26 kts | 308° |
| 2026-05-06 12:30 | 41.97077 | -87.90883 | 671 ft | 25 kts | 319° |
| 2026-05-06 12:30 | 41.97245 | -87.91046 | 674 ft | 12 kts | 2° |
| 2026-05-06 12:30 | 41.97312 | -87.91007 | 674 ft | 11 kts | 5° |
| 2026-05-06 12:30 | 41.97383 | -87.91062 | 674 ft | 13 kts | 320° |
| 2026-05-06 12:31 | 41.97438 | -87.91079 | 673 ft | 12 kts | 22° |
| 2026-05-06 12:31 | 41.97521 | -87.91033 | 673 ft | 14 kts | 52° |
| 2026-05-06 12:31 | 41.97562 | -87.90915 | 674 ft | 14 kts | 53° |
| 2026-05-06 12:31 | 41.97663 | -87.90870 | 671 ft | 17 kts | 10° |
| 2026-05-06 12:32 | 41.97791 | -87.90842 | 671 ft | 17 kts | 9° |
| 2026-05-06 12:32 | 41.97834 | -87.90808 | 671 ft | 4 kts | 59° |
| 2026-05-06 12:32 | 41.97836 | -87.90768 | 671 ft | 5 kts | 96° |
| 2026-05-06 12:32 | 41.97833 | -87.90738 | 671 ft | 0 kts | 100° |